Weather Models
Both GFS & NAM
00z 06z 12z 18z
24hr Precip
00z 06z 12z 18z
36hr Simulated radar
00z 06z 12z 18z
SKEWT Soundings
00z 12z
Current Conditions (Updated 11:00pm on 1/17/19)
Temperature
 33°
-0.35
36°  
29°  
0
10
20
30
40
50
60
70
80
90
100
Dew Point
19°
20°  
6°  
-20
-10
0
10
20
30
40
50
60
70
80
Wind Chill
28°
36°  
18°  
-20
-10
0
10
20
30
40
50
60
70
80
Wind Chill
Humidity
56%
56% 
29% 
0
10
20
30
40
50
60
70
80
90
100
Barometer
30.25
   Steady
30.46  
30.25  
28.00
28.30
28.60
28.90
29.20
29.50
29.80
30.10
30.40
30.70
31.00
Temperature
Dew Point
Humidity
Pressure
Wind
5mph
  E
Daily Rain
.00
.05
.10
.15
.20
.25
.30
.35
.40
.45
.50
Rain Today
 0.00" 
Month Rain
0.00
0.20
0.40
0.60
0.80
1.00
1.20
1.40
1.60
1.80
2.00
Month Rain
 1.02" 
Year Rain
0.00
0.25
0.50
0.75
1.00
1.25
1.50
1.75
2.00
2.25
2.50
Year Rain
 1.02" 
Sun & Moon Data
Sunrise 7:18am
Sunset 5:00pm
Moonrise 1:47pm
Moonset 3:26am
Moon % 85%
Other Rain Data
Past Hour 0.00 Past 24 Hours 0.00
Past 3 Hours 0.00 Past 7 Days 0.08
Past 6 Hours 0.00
Cloud Height
3485


Current Front Map
Current Satellite map
7 Day Forecast
NWS Forecast for Philadelphia PA
National Weather Service Forecast for: Philadelphia PA
Issued by: National Weather Service Philadelphia, PA
Updated: 9:39 pm EST Jan 17, 2019

Philadelphia
 
Tonight

Tonight: Snow.  Low around 29. Northeast wind 3 to 5 mph.  Chance of precipitation is 80%. Total nighttime snow accumulation of around an inch possible.
Snow

Friday

Friday: A chance of snow before 8am.  Cloudy, then gradually becoming mostly sunny, with a high near 42. Light and variable wind becoming west around 6 mph in the morning.  Chance of precipitation is 30%. New snow accumulation of less than a half inch possible.
Chance Snow
then Mostly
Sunny
Friday
Night
Friday Night: Partly cloudy, with a low around 29. West wind around 6 mph becoming north after midnight.
Partly Cloudy

Saturday

Saturday: A chance of snow between 10am and noon, then rain and snow likely.  Mostly cloudy, with a high near 36. East wind 6 to 10 mph.  Chance of precipitation is 70%. New snow accumulation of less than a half inch possible.
Chance Snow
then
Rain/Snow
Likely
Saturday
Night
Saturday Night: Rain and snow, becoming all rain after 10pm.  Low around 34. East wind 6 to 11 mph becoming light southeast  after midnight.  Chance of precipitation is 100%. New snow accumulation of 1 to 2 inches possible.
Rain/Snow
then Rain

Sunday

Sunday: Rain before 1pm, then rain likely, possibly mixed with freezing rain between 1pm and 2pm, then snow likely after 2pm.  High near 43. Chance of precipitation is 90%. New precipitation amounts between a half and three quarters of an inch possible.
Rain then
Wintry Mix

Sunday
Night
Sunday Night: Partly cloudy, with a low around 10. Blustery.
Mostly Cloudy
and Blustery
then Partly
Cloudy
M.L.King
Day
M.L.King Day: Sunny, with a high near 15.
Sunny

Monday
Night
Monday Night: Mostly clear, with a low around 10.
Mostly Clear

Lo 29 °F Hi 42 °F Lo 29 °F Hi 36 °F Lo 34 °F Hi 43 °F Lo 10 °F Hi 15 °F Lo 10 °F

Hazardous Weather Outlook
 

Tonight
 
Snow. Low around 29. Northeast wind 3 to 5 mph. Chance of precipitation is 80%. Total nighttime snow accumulation of around an inch possible.
Friday
 
A chance of snow before 8am. Cloudy, then gradually becoming mostly sunny, with a high near 42. Light and variable wind becoming west around 6 mph in the morning. Chance of precipitation is 30%. New snow accumulation of less than a half inch possible.
Friday Night
 
Partly cloudy, with a low around 29. West wind around 6 mph becoming north after midnight.
Saturday
 
A chance of snow between 10am and noon, then rain and snow likely. Mostly cloudy, with a high near 36. East wind 6 to 10 mph. Chance of precipitation is 70%. New snow accumulation of less than a half inch possible.
Saturday Night
 
Rain and snow, becoming all rain after 10pm. Low around 34. East wind 6 to 11 mph becoming light southeast after midnight. Chance of precipitation is 100%. New snow accumulation of 1 to 2 inches possible.
Sunday
 
Rain before 1pm, then rain likely, possibly mixed with freezing rain between 1pm and 2pm, then snow likely after 2pm. High near 43. Chance of precipitation is 90%. New precipitation amounts between a half and three quarters of an inch possible.
Sunday Night
 
Partly cloudy, with a low around 10. Blustery.
M.L.King Day
 
Sunny, with a high near 15.
Monday Night
 
Mostly clear, with a low around 10.
Tuesday
 
Mostly sunny, with a high near 29.
Tuesday Night
 
Mostly cloudy, with a low around 24.
Wednesday
 
A chance of rain and snow. Mostly cloudy, with a high near 45. Chance of precipitation is 50%.
Wednesday Night
 
A chance of rain and snow. Mostly cloudy, with a low around 34. Chance of precipitation is 50%.
Thursday
 
A chance of rain. Mostly cloudy, with a high near 42. Chance of precipitation is 40%.

 

Forecast from NOAA-NWS for Philadelphia PA.

Area Weather Current Conditions
Nearby METAR Reports

KPHL - Philadelphia, Pennsylvania
Updated: Thu, 17-Jan-2019 10:54pm EST
Light snow, Overcast
Light snow, Overcast
 Wind from calm
Wind: Calm
Temperature: 30°F , -1°C
Dew Point: 23°F , -5°C
Humidity: 75%
Barometer: 30.24 inHg , 1024 hPa
Summary: Light Snow
Clouds: Overcast
Visibility: 7 miles , 11 km
Cloud details: Partly Cloudy 3000 ft
Mostly Cloudy 4400 ft
Overcast 5500 ft
2019/01/18 03:54 KPHL 180354Z 00000KT 7SM -SN SCT030 BKN044 OVC055 M01/M05 A3024 RMK AO2 SLP240 P0000 T10061050 $
KMPO - Mt. Pocono, Pennsylvania
Updated: Thu, 17-Jan-2019 10:53pm EST
Light snow, Overcast
Light snow, Overcast
 Wind from ESE
Wind: ESE 10 mph , 17 km/h
Temperature: 19°F , -7°C
Wind Chill: 8°F , -13°C
Dew Point: 12°F , -11°C
Humidity: 73%
Barometer: 30.10 inHg , 1019.3 hPa
Summary: Light Snow
Clouds: Overcast
Visibility: 9 miles , 14 km
Cloud details: Few Clouds 2200 ft
Overcast 3000 ft
2019/01/18 03:53 KMPO 180353Z AUTO 12009KT 9SM -SN FEW022 OVC030 M07/M11 A3010 RMK AO2 SNB13 SLP225 P0000 T10671106
 
KACY - Atlantic City, New Jersey
Updated: Thu, 17-Jan-2019 10:54pm EST
Overcast
Overcast
 Wind from calm
Wind: Calm
Temperature: 30°F , -1°C
Dew Point: 25°F , -4°C
Humidity: 80%
Barometer: 30.22 inHg , 1023.4 hPa
Clouds: Overcast
Visibility: 10 miles , 16 km
Cloud details: Overcast 5000 ft
2019/01/18 03:54 KACY 180354Z 00000KT 10SM OVC050 M01/M04 A3022 RMK AO2 SLP232 T10061039
KMIV - Millville, New Jersey
Updated: Thu, 17-Jan-2019 10:54pm EST
Overcast
Overcast
 Wind from N
Wind: N 3 mph , 6 km/h
Temperature: 30°F , -1°C
Dew Point: 25°F , -4°C
Humidity: 80%
Barometer: 30.22 inHg , 1023.4 hPa
Clouds: Overcast
Visibility: 9 miles , 14 km
Cloud details: Overcast 4300 ft
2019/01/18 03:54 KMIV 180354Z AUTO 35003KT 9SM OVC043 M01/M04 A3022 RMK AO2 SLP232 T10061044 TSNO
 
KWWD - Wildwood, New Jersey
Updated: Thu, 17-Jan-2019 10:55pm EST
Overcast
Overcast
 Wind from E
Wind: E 5 mph , 7 km/h
Temperature: 37°F , 3°C
Wind Chill: 33°F , 1°C
Dew Point: 25°F , -4°C
Humidity: 60%
Barometer: 30.21 inHg , 1023 hPa
Clouds: Overcast
Visibility: 10 miles , 16 km
Cloud details: Mostly Cloudy 4400 ft
Mostly Cloudy 5500 ft
Overcast 7500 ft
2019/01/18 03:55 KWWD 180355Z AUTO 09004KT 10SM BKN044 BKN055 OVC075 03/M04 A3021 RMK AO2 SLP233 T00281039
KDOV - Dover Afb, Delaware
Updated: Thu, 17-Jan-2019 10:56pm EST
Light snow, Overcast
Light snow, Overcast
 Wind from calm
Wind: Calm
Temperature: 34°F , 1°C
Dew Point: 30°F , -1°C
Humidity: 87%
Barometer: 30.21 inHg , 1023 hPa
Summary: Light Snow
Clouds: Overcast
Visibility: 6 miles , 10 km
Cloud details: Partly Cloudy 2300 ft
Mostly Cloudy 2900 ft
Overcast 3600 ft
2019/01/18 03:56 KDOV 180356Z 00000KT 6SM -SN SCT023 BKN029 OVC036 01/M01 A3021 RMK AO2A UPB00E26SNB26 CIG 023V029 CIG 016 RWY01 SLP234 P0000 T00111015 $
Severe Weather Map